KEDE/EDE METAR and TAF weather

Enter ICAO airport designator
Station Type Date Time Source
KEDE METAR 2018/01/22 11:55 UTC NOAA

KEDE 221155Z AUTO 00000KT 10SM CLR 03/03 A3021 RMK AO2 T00320026 10051 20023


Station Type Date Time Source
KEDE Decoded METAR 2018/01/22 11:55 UTC NOAA

Edenton, Northeastern Regional Airport, NC, United States (KEDE) 36-01-40N 076-34-02W
Jan 22, 2018 - 06:55 AM EST / 2018.01.22 1155 UTC
Wind: Calm:0
Visibility: 10 mile(s):0
Sky conditions: clear
Temperature: 37.8 F (3.2 C)
Dew Point: 36.7 F (2.6 C)
Relative Humidity: 95%
Pressure (altimeter): 30.21 in. Hg (1023 hPa)
ob: KEDE 221155Z AUTO 00000KT 10SM CLR 03/03 A3021 RMK AO2 T00320026 10051 20023
cycle: 12

Station Type Date Time Source
KEDE TAF UTC NOAA

Error!


Example: see airport list